createdAt,value
2023-02-25T00:00:56.620Z,93.55
2023-02-25T00:02:03.745Z,94.38
2023-02-25T00:02:56.715Z,95.01
2023-02-25T00:03:56.583Z,94.38
2023-02-25T00:04:56.578Z,94.49
2023-02-25T00:05:56.567Z,94.59
2023-02-25T00:06:56.559Z,94.49
2023-02-25T00:07:56.544Z,94.70
2023-02-25T00:08:56.536Z,94.90
2023-02-25T00:09:56.521Z,93.55
2023-02-25T00:10:56.509Z,93.97
2023-02-25T00:11:56.850Z,94.07
2023-02-25T00:13:08.746Z,94.07
2023-02-25T00:13:56.492Z,93.76
2023-02-25T00:14:56.472Z,93.55
2023-02-25T00:15:56.472Z,94.28
2023-02-25T00:16:56.772Z,94.49
2023-02-25T00:17:56.443Z,94.07
2023-02-25T00:18:56.430Z,94.80
2023-02-25T00:19:56.431Z,93.97
2023-02-25T00:20:56.413Z,92.82
2023-02-25T00:21:56.601Z,93.35
2023-02-25T00:22:56.389Z,93.03
2023-02-25T00:24:00.140Z,92.47
2023-02-25T00:24:56.377Z,92.61
2023-02-25T00:25:56.363Z,92.93
2023-02-25T00:26:56.370Z,92.68
2023-02-25T00:27:56.348Z,93.41
2023-02-25T00:28:56.334Z,93.76
2023-02-25T00:29:56.340Z,94.38
2023-02-25T00:30:56.411Z,93.76
2023-02-25T00:31:56.893Z,93.76
2023-02-25T00:32:56.437Z,92.72
2023-02-25T00:33:56.286Z,93.66
2023-02-25T00:34:56.267Z,92.61
2023-02-25T00:35:56.267Z,93.03
2023-02-25T00:36:56.472Z,93.14
2023-02-25T00:38:04.009Z,93.45
2023-02-25T00:38:56.237Z,92.93
2023-02-25T00:39:56.221Z,93.14
2023-02-25T00:40:56.208Z,92.72
2023-02-25T00:41:56.345Z,92.82
2023-02-25T00:42:56.189Z,93.14
2023-02-25T00:43:56.188Z,94.28
2023-02-25T00:44:56.176Z,94.07
2023-02-25T00:45:56.176Z,94.28
2023-02-25T00:46:56.820Z,93.76
2023-02-25T00:47:56.155Z,93.66
2023-02-25T00:48:56.140Z,94.07
2023-02-25T00:49:56.126Z,94.90
2023-02-25T00:50:56.112Z,94.90
2023-02-25T00:51:58.582Z,94.70
2023-02-25T00:52:56.103Z,95.26
2023-02-25T00:53:56.095Z,94.80
2023-02-25T00:54:56.085Z,95.01
2023-02-25T00:55:56.065Z,95.36
2023-02-25T00:56:56.075Z,95.36
2023-02-25T00:57:56.053Z,94.84
2023-02-25T00:58:56.032Z,95.26
2023-02-25T00:59:56.024Z,95.15
2023-02-25T01:00:56.009Z,96.09
2023-02-25T01:01:56.352Z,96.09
2023-02-25T01:02:56.023Z,96.20
2023-02-25T01:03:55.983Z,96.41
2023-02-25T01:04:55.971Z,96.72
2023-02-25T01:05:55.966Z,96.51
2023-02-25T01:06:56.362Z,96.09
2023-02-25T01:07:55.949Z,96.41
2023-02-25T01:08:55.933Z,96.41
2023-02-25T01:09:55.920Z,95.57
2023-02-25T01:10:55.912Z,95.67
2023-02-25T01:11:55.921Z,95.15
2023-02-25T01:12:55.886Z,94.84
2023-02-25T01:13:55.961Z,94.74
2023-02-25T01:14:55.868Z,94.74
2023-02-25T01:15:55.920Z,95.26
2023-02-25T01:16:56.228Z,95.05
2023-02-25T01:17:55.846Z,95.15
2023-02-25T01:18:55.830Z,94.53
2023-02-25T01:19:55.819Z,93.91
2023-02-25T01:20:55.820Z,93.87
2023-02-25T01:21:56.562Z,93.80
2023-02-25T01:22:55.787Z,93.76
2023-02-25T01:23:55.779Z,94.49
2023-02-25T01:24:55.768Z,94.95
2023-02-25T01:25:55.762Z,95.15
2023-02-25T01:26:56.519Z,94.74
2023-02-25T01:27:55.747Z,94.59
2023-02-25T01:28:55.786Z,95.11
2023-02-25T01:29:55.724Z,95.15
2023-02-25T01:30:55.815Z,95.15
2023-02-25T01:31:55.956Z,94.84
2023-02-25T01:32:55.758Z,94.22
2023-02-25T01:33:55.678Z,95.01
2023-02-25T01:34:55.666Z,94.32
2023-02-25T01:35:55.659Z,94.84
2023-02-25T01:36:55.646Z,94.74
2023-02-25T01:37:55.641Z,94.38
2023-02-25T01:38:55.626Z,94.49
2023-02-25T01:39:55.626Z,94.07
2023-02-25T01:40:55.610Z,93.76
2023-02-25T01:41:55.604Z,94.18
2023-02-25T01:42:55.594Z,94.18
2023-02-25T01:43:55.583Z,94.43
2023-02-25T01:44:55.564Z,94.43
2023-02-25T01:45:55.563Z,94.84
2023-02-25T01:46:55.612Z,95.36
2023-02-25T01:47:55.574Z,94.74
2023-02-25T01:48:55.524Z,94.43
2023-02-25T01:49:55.528Z,94.43
2023-02-25T01:50:55.519Z,94.12
2023-02-25T01:51:55.510Z,93.49
2023-02-25T01:52:55.500Z,94.07
2023-02-25T01:53:55.493Z,94.49
2023-02-25T01:54:55.473Z,94.12
2023-02-25T01:55:55.468Z,93.91
2023-02-25T01:56:55.453Z,94.07
2023-02-25T01:57:55.448Z,94.12
2023-02-25T01:58:55.429Z,93.66
2023-02-25T01:59:55.460Z,93.35
2023-02-25T02:00:55.604Z,93.35
2023-02-25T02:01:55.401Z,93.80
2023-02-25T02:02:55.440Z,93.45
2023-02-25T02:03:55.386Z,93.91
2023-02-25T02:04:55.381Z,94.49
2023-02-25T02:05:55.367Z,93.60
2023-02-25T02:06:55.357Z,93.80
2023-02-25T02:07:55.350Z,94.12
2023-02-25T02:08:55.331Z,93.97
2023-02-25T02:09:55.334Z,93.87
2023-02-25T02:10:55.322Z,94.12
2023-02-25T02:11:55.305Z,93.70
2023-02-25T02:12:55.300Z,94.12
2023-02-25T02:13:55.283Z,93.70
2023-02-25T02:14:55.270Z,93.07
2023-02-25T02:15:55.284Z,93.18
2023-02-25T02:16:55.278Z,93.29
2023-02-25T02:17:55.246Z,93.70
2023-02-25T02:18:55.225Z,92.66
2023-02-25T02:19:55.225Z,92.24
2023-02-25T02:20:55.204Z,93.35
2023-02-25T02:21:55.202Z,93.03
2023-02-25T02:22:55.188Z,92.41
2023-02-25T02:23:55.185Z,92.82
2023-02-25T02:24:55.165Z,92.14
2023-02-25T02:25:55.166Z,92.14
2023-02-25T02:26:55.149Z,92.20
2023-02-25T02:27:55.316Z,92.10
2023-02-25T02:28:55.128Z,92.20
2023-02-25T02:29:55.130Z,92.24
2023-02-25T02:30:55.163Z,92.10
2023-02-25T02:31:55.232Z,92.51
2023-02-25T02:32:55.822Z,91.99
2023-02-25T02:33:55.086Z,92.51
2023-02-25T02:34:55.072Z,93.14
2023-02-25T02:35:55.069Z,92.51
2023-02-25T02:36:55.048Z,92.55
2023-02-25T02:37:55.316Z,92.72
2023-02-25T02:38:55.028Z,93.03
2023-02-25T02:39:55.019Z,92.66
2023-02-25T02:40:55.012Z,92.41
2023-02-25T02:41:55.003Z,93.18
2023-02-25T02:42:55.682Z,93.18
2023-02-25T02:43:54.983Z,93.35
2023-02-25T02:44:54.967Z,94.01
2023-02-25T02:45:54.987Z,93.70
2023-02-25T02:46:54.944Z,92.82
2023-02-25T02:47:55.122Z,92.35
2023-02-25T02:48:54.924Z,92.30
2023-02-25T02:49:54.919Z,92.97
2023-02-25T02:50:54.914Z,93.39
2023-02-25T02:51:54.896Z,92.76
2023-02-25T02:52:55.082Z,93.07
2023-02-25T02:53:54.878Z,92.97
2023-02-25T02:54:54.885Z,92.45
2023-02-25T02:55:54.855Z,92.35
2023-02-25T02:56:54.844Z,91.72
2023-02-25T02:57:55.135Z,92.30
2023-02-25T02:58:54.999Z,92.61
2023-02-25T02:59:54.822Z,92.66
2023-02-25T03:00:54.836Z,93.14
2023-02-25T03:01:54.792Z,93.39
2023-02-25T03:02:54.912Z,92.55
2023-02-25T03:03:54.786Z,92.51
2023-02-25T03:04:54.764Z,92.30
2023-02-25T03:05:54.767Z,92.51
2023-02-25T03:06:54.735Z,92.93
2023-02-25T03:07:54.986Z,92.93
2023-02-25T03:08:54.720Z,93.35
2023-02-25T03:09:54.717Z,93.45
2023-02-25T03:10:54.701Z,93.80
2023-02-25T03:11:54.691Z,93.18
2023-02-25T03:12:55.203Z,93.66
2023-02-25T03:13:54.676Z,93.18
2023-02-25T03:14:54.657Z,92.41
2023-02-25T03:15:54.658Z,92.93
2023-02-25T03:16:54.700Z,93.03
2023-02-25T03:17:55.570Z,92.41
2023-02-25T03:18:54.630Z,92.20
2023-02-25T03:19:54.616Z,91.78
2023-02-25T03:20:54.614Z,91.68
2023-02-25T03:21:54.595Z,92.20
2023-02-25T03:22:55.063Z,91.99
2023-02-25T03:23:54.582Z,92.20
2023-02-25T03:24:54.573Z,91.78
2023-02-25T03:25:54.558Z,92.10
2023-02-25T03:26:54.564Z,92.30
2023-02-25T03:27:54.902Z,92.20
2023-02-25T03:28:54.533Z,92.61
2023-02-25T03:29:54.529Z,92.72
2023-02-25T03:30:54.584Z,92.72
2023-02-25T03:31:54.583Z,92.82
2023-02-25T03:32:55.339Z,92.41
2023-02-25T03:33:54.496Z,92.82
2023-02-25T03:34:54.469Z,92.93
2023-02-25T03:35:54.455Z,93.03
2023-02-25T03:36:54.462Z,93.35
2023-02-25T03:37:54.782Z,93.14
2023-02-25T03:38:54.430Z,93.45
2023-02-25T03:39:54.417Z,92.61
2023-02-25T03:40:54.405Z,93.35
2023-02-25T03:41:54.397Z,93.03
2023-02-25T03:42:55.093Z,93.76
2023-02-25T03:43:54.377Z,93.45
2023-02-25T03:44:54.382Z,93.55
2023-02-25T03:45:54.445Z,93.91
2023-02-25T03:46:54.352Z,94.07
2023-02-25T03:47:54.898Z,94.38
2023-02-25T03:48:54.348Z,93.87
2023-02-25T03:49:54.317Z,94.07
2023-02-25T03:50:54.307Z,94.18
2023-02-25T03:51:54.306Z,94.12
2023-02-25T03:52:54.580Z,94.18
2023-02-25T03:53:54.280Z,94.53
2023-02-25T03:54:54.273Z,94.80
2023-02-25T03:55:54.269Z,94.70
2023-02-25T03:56:54.247Z,94.70
2023-02-25T03:57:54.743Z,94.22
2023-02-25T03:58:54.229Z,93.66
2023-02-25T03:59:54.213Z,93.66
2023-02-25T04:00:54.205Z,94.49
2023-02-25T04:01:54.204Z,94.53
2023-02-25T04:02:54.951Z,93.70
2023-02-25T04:03:54.168Z,94.12
2023-02-25T04:04:54.230Z,94.84
2023-02-25T04:05:54.154Z,94.84
2023-02-25T04:06:54.144Z,94.22
2023-02-25T04:07:54.433Z,94.32
2023-02-25T04:08:54.123Z,94.53
2023-02-25T04:09:54.116Z,94.43
2023-02-25T04:10:54.107Z,94.64
2023-02-25T04:11:54.088Z,94.64
2023-02-25T04:12:54.930Z,94.53
2023-02-25T04:13:54.073Z,94.84
2023-02-25T04:14:54.064Z,94.32
2023-02-25T04:15:54.118Z,93.70
2023-02-25T04:16:54.043Z,94.01
2023-02-25T04:17:54.331Z,94.07
2023-02-25T04:18:54.035Z,93.80
2023-02-25T04:19:54.018Z,94.12
2023-02-25T04:20:53.999Z,93.91
2023-02-25T04:21:53.983Z,93.60
2023-02-25T04:22:54.597Z,93.87
2023-02-25T04:23:53.966Z,94.01
2023-02-25T04:24:53.968Z,93.70
2023-02-25T04:25:53.963Z,94.32
2023-02-25T04:26:53.942Z,93.60
2023-02-25T04:27:53.938Z,93.39
2023-02-25T04:28:53.954Z,93.60
2023-02-25T04:29:53.934Z,93.39
2023-02-25T04:30:53.998Z,93.80
2023-02-25T04:31:54.080Z,93.91
2023-02-25T04:32:53.977Z,94.01
2023-02-25T04:33:53.876Z,94.32
2023-02-25T04:34:53.869Z,93.49
2023-02-25T04:35:53.854Z,93.60
2023-02-25T04:36:53.853Z,93.49
2023-02-25T04:37:53.829Z,92.97
2023-02-25T04:38:53.827Z,92.97
2023-02-25T04:39:53.813Z,93.29
2023-02-25T04:40:53.806Z,93.18
2023-02-25T04:41:53.789Z,93.07
2023-02-25T04:42:53.786Z,93.18
2023-02-25T04:43:53.784Z,93.60
2023-02-25T04:44:53.776Z,93.74
2023-02-25T04:45:53.754Z,93.54
2023-02-25T04:46:53.795Z,93.80
2023-02-25T04:47:53.749Z,94.16
2023-02-25T04:48:53.876Z,93.95
2023-02-25T04:49:53.704Z,93.70
2023-02-25T04:50:53.717Z,93.29
2023-02-25T04:51:53.694Z,93.91
2023-02-25T04:52:53.694Z,94.43
2023-02-25T04:53:53.670Z,93.91
2023-02-25T04:54:53.668Z,93.60
2023-02-25T04:55:53.649Z,93.39
2023-02-25T04:56:53.653Z,93.70
2023-02-25T04:57:53.628Z,93.80
2023-02-25T04:58:53.624Z,94.12
2023-02-25T04:59:53.604Z,94.22
2023-02-25T05:00:53.604Z,94.22
2023-02-25T05:01:53.638Z,94.22
2023-02-25T05:02:53.583Z,94.01
2023-02-25T05:03:53.572Z,94.12
2023-02-25T05:04:53.621Z,95.26
2023-02-25T05:05:53.549Z,95.36
2023-02-25T05:06:53.541Z,95.57
2023-02-25T05:07:53.535Z,95.62
2023-02-25T05:08:53.529Z,95.72
2023-02-25T05:09:53.507Z,96.03
2023-02-25T05:10:53.505Z,95.93
2023-02-25T05:11:53.484Z,96.14
2023-02-25T05:12:53.479Z,95.93
2023-02-25T05:13:53.471Z,96.14
2023-02-25T05:14:53.465Z,96.14
2023-02-25T05:15:53.514Z,96.24
2023-02-25T05:16:53.453Z,96.59
2023-02-25T05:17:53.426Z,96.66
2023-02-25T05:18:53.806Z,96.55
2023-02-25T05:19:53.413Z,96.59
2023-02-25T05:20:53.403Z,96.66
2023-02-25T05:21:53.389Z,96.86
2023-02-25T05:22:53.385Z,97.12
2023-02-25T05:23:53.379Z,96.70
2023-02-25T05:24:53.364Z,96.91
2023-02-25T05:25:53.350Z,96.59
2023-02-25T05:26:53.341Z,96.59
2023-02-25T05:27:53.326Z,96.28
2023-02-25T05:28:53.334Z,96.59
2023-02-25T05:29:53.379Z,96.59
2023-02-25T05:30:53.413Z,96.70
2023-02-25T05:31:53.450Z,96.80
2023-02-25T05:32:53.396Z,96.49
2023-02-25T05:33:53.305Z,96.28
2023-02-25T05:34:53.270Z,96.18
2023-02-25T05:35:53.247Z,96.28
2023-02-25T05:36:53.245Z,96.18
2023-02-25T05:37:53.227Z,95.66
2023-02-25T05:38:53.225Z,95.97
2023-02-25T05:39:53.205Z,96.08
2023-02-25T05:40:53.208Z,96.08
2023-02-25T05:41:53.133Z,95.97
2023-02-25T05:42:53.187Z,96.08
2023-02-25T05:43:53.144Z,96.43
2023-02-25T05:44:53.111Z,96.33
2023-02-25T05:45:53.099Z,96.18
2023-02-25T05:46:53.205Z,96.33
2023-02-25T05:47:53.126Z,96.22
2023-02-25T05:48:53.081Z,96.22
2023-02-25T05:49:53.070Z,96.43
2023-02-25T05:50:53.060Z,96.53
2023-02-25T05:51:53.038Z,96.64
2023-02-25T05:52:53.031Z,96.95
2023-02-25T05:53:53.449Z,97.16
2023-02-25T05:54:53.007Z,97.16
2023-02-25T05:55:52.991Z,97.16
2023-02-25T05:56:52.995Z,96.75
2023-02-25T05:57:52.976Z,96.64
2023-02-25T05:58:53.316Z,96.28
2023-02-25T05:59:52.949Z,96.28
2023-02-25T06:00:52.956Z,96.33
2023-02-25T06:01:52.973Z,96.18
2023-02-25T06:02:52.985Z,96.18
2023-02-25T06:03:53.188Z,96.08
2023-02-25T06:04:52.903Z,95.87
2023-02-25T06:05:52.889Z,96.08
2023-02-25T06:06:52.882Z,96.18
2023-02-25T06:07:52.883Z,96.08
2023-02-25T06:08:53.176Z,95.97
2023-02-25T06:09:52.852Z,95.97
2023-02-25T06:10:52.849Z,95.87
2023-02-25T06:11:52.834Z,95.97
2023-02-25T06:12:52.867Z,96.18
2023-02-25T06:13:53.645Z,96.28
2023-02-25T06:14:52.806Z,96.18
2023-02-25T06:15:52.795Z,96.49
2023-02-25T06:16:52.868Z,96.70
2023-02-25T06:17:52.791Z,97.12
2023-02-25T06:18:53.079Z,97.17
2023-02-25T06:19:52.759Z,97.01
2023-02-25T06:20:52.750Z,97.53
2023-02-25T06:21:52.727Z,98.16
2023-02-25T06:22:52.736Z,98.68
2023-02-25T06:23:53.604Z,98.72
2023-02-25T06:24:52.707Z,98.41
2023-02-25T06:25:52.695Z,98.52
2023-02-25T06:26:52.687Z,99.04
2023-02-25T06:27:52.672Z,99.24
2023-02-25T06:28:52.686Z,99.55
2023-02-25T06:29:52.651Z,99.55
2023-02-25T06:30:52.675Z,99.91
2023-02-25T06:31:52.765Z,99.99
2023-02-25T06:32:52.769Z,99.99
2023-02-25T06:33:52.931Z,99.99
2023-02-25T06:34:52.606Z,99.99
2023-02-25T06:35:52.604Z,99.99
2023-02-25T06:36:52.587Z,99.99
2023-02-25T06:37:52.640Z,99.99
2023-02-25T06:38:53.012Z,99.99
2023-02-25T06:39:52.563Z,99.99
2023-02-25T06:40:52.550Z,99.99
2023-02-25T06:41:52.534Z,99.99
2023-02-25T06:42:52.523Z,99.99
2023-02-25T06:43:52.789Z,99.99
2023-02-25T06:44:52.507Z,99.99
2023-02-25T06:45:52.598Z,99.99
2023-02-25T06:46:52.488Z,99.99
2023-02-25T06:47:52.484Z,99.99
2023-02-25T06:48:52.490Z,99.99
2023-02-25T06:49:52.454Z,99.99
2023-02-25T06:50:52.445Z,99.76
2023-02-25T06:51:52.436Z,99.76
2023-02-25T06:52:52.430Z,99.87
2023-02-25T06:53:52.714Z,99.99
2023-02-25T06:54:52.411Z,99.99
2023-02-25T06:55:52.389Z,99.99
2023-02-25T06:56:52.459Z,99.99
2023-02-25T06:57:52.384Z,99.99
2023-02-25T06:58:52.836Z,99.99
2023-02-25T06:59:52.412Z,99.99
2023-02-25T07:00:52.385Z,99.99
2023-02-25T07:01:52.392Z,99.99
2023-02-25T07:02:52.345Z,99.99
2023-02-25T07:03:53.041Z,99.99
2023-02-25T07:04:52.433Z,99.99
2023-02-25T07:05:52.312Z,99.99
2023-02-25T07:06:52.310Z,99.99
2023-02-25T07:07:52.316Z,99.99
2023-02-25T07:08:52.338Z,99.99
2023-02-25T07:09:52.252Z,99.99
2023-02-25T07:10:52.298Z,99.99
2023-02-25T07:11:52.234Z,99.99
2023-02-25T07:12:52.254Z,99.99
2023-02-25T07:13:52.524Z,99.99
2023-02-25T07:14:52.304Z,99.99
2023-02-25T07:15:52.268Z,99.99
2023-02-25T07:16:52.202Z,99.99
2023-02-25T07:17:52.193Z,99.99
2023-02-25T07:18:52.555Z,99.99
2023-02-25T07:19:52.152Z,99.99
2023-02-25T07:20:52.180Z,99.99
2023-02-25T07:21:52.140Z,99.93
2023-02-25T07:22:52.202Z,99.93
2023-02-25T07:23:52.510Z,99.99
2023-02-25T07:24:52.154Z,99.99
2023-02-25T07:25:52.129Z,99.99
2023-02-25T07:26:52.133Z,99.99
2023-02-25T07:27:52.076Z,99.99
2023-02-25T07:28:52.109Z,99.99
2023-02-25T07:29:52.063Z,99.99
2023-02-25T07:30:52.147Z,99.82
2023-02-25T07:31:52.283Z,99.93
2023-02-25T07:32:52.132Z,99.99
2023-02-25T07:33:52.756Z,99.99
2023-02-25T07:34:52.010Z,99.99
2023-02-25T07:35:52.007Z,99.99
2023-02-25T07:36:51.993Z,99.99
2023-02-25T07:37:51.974Z,99.99
2023-02-25T07:38:51.997Z,99.99
2023-02-25T07:39:51.973Z,99.99
2023-02-25T07:40:51.954Z,99.99
2023-02-25T07:41:51.958Z,99.99
2023-02-25T07:42:51.928Z,99.99
2023-02-25T07:43:51.923Z,99.30
2023-02-25T07:44:51.916Z,99.10
2023-02-25T07:45:51.973Z,99.10
2023-02-25T07:46:51.898Z,98.99
2023-02-25T07:47:51.886Z,99.72
2023-02-25T07:48:51.880Z,99.82
2023-02-25T07:49:51.871Z,99.87
2023-02-25T07:50:51.851Z,99.76
2023-02-25T07:51:51.848Z,99.55
2023-02-25T07:52:51.845Z,99.76
2023-02-25T07:53:51.833Z,99.35
2023-02-25T07:54:51.978Z,99.24
2023-02-25T07:55:51.805Z,98.99
2023-02-25T07:56:51.793Z,98.16
2023-02-25T07:57:51.796Z,97.01
2023-02-25T07:58:51.773Z,97.17
2023-02-25T07:59:51.779Z,95.65
2023-02-25T08:00:51.756Z,93.99
2023-02-25T08:01:51.801Z,92.97
2023-02-25T08:02:51.748Z,91.80
2023-02-25T08:03:51.753Z,92.78
2023-02-25T08:04:51.807Z,94.34
2023-02-25T08:05:51.736Z,93.62
2023-02-25T08:06:51.685Z,93.45
2023-02-25T08:07:51.682Z,94.12
2023-02-25T08:08:51.674Z,94.95
2023-02-25T08:09:51.669Z,95.26
2023-02-25T08:10:51.648Z,94.74
2023-02-25T08:11:51.643Z,95.67
2023-02-25T08:12:51.629Z,96.41
2023-02-25T08:13:51.632Z,96.41
2023-02-25T08:14:51.630Z,96.51
2023-02-25T08:15:51.690Z,94.84
2023-02-25T08:16:51.600Z,95.47
2023-02-25T08:17:51.592Z,94.43
2023-02-25T08:18:51.568Z,95.57
2023-02-25T08:19:51.568Z,96.09
2023-02-25T08:20:51.549Z,94.64
2023-02-25T08:21:51.554Z,94.74
2023-02-25T08:22:51.543Z,94.74
2023-02-25T08:23:51.521Z,93.39
2023-02-25T08:24:51.507Z,94.22
2023-02-25T08:25:51.512Z,92.86
2023-02-25T08:26:51.486Z,93.07
2023-02-25T08:27:51.495Z,92.14
2023-02-25T08:28:51.557Z,93.29
2023-02-25T08:29:51.479Z,92.03
2023-02-25T08:30:51.621Z,92.66
2023-02-25T08:31:51.817Z,91.89
2023-02-25T08:32:51.489Z,92.82
2023-02-25T08:33:51.437Z,93.10
2023-02-25T08:34:51.422Z,92.36
2023-02-25T08:35:51.402Z,92.68
2023-02-25T08:36:51.388Z,92.68
2023-02-25T08:37:51.385Z,92.05
2023-02-25T08:38:51.380Z,92.78
2023-02-25T08:39:51.371Z,93.82
2023-02-25T08:40:51.366Z,92.43
2023-02-25T08:41:51.338Z,91.55
2023-02-25T08:42:51.336Z,91.86
2023-02-25T08:43:51.359Z,89.79
2023-02-25T08:44:51.315Z,91.52
2023-02-25T08:45:51.307Z,90.58
2023-02-25T08:46:51.384Z,89.13
2023-02-25T08:47:51.288Z,89.65
2023-02-25T08:48:51.260Z,89.86
2023-02-25T08:49:51.273Z,90.48
2023-02-25T08:50:51.293Z,88.85
2023-02-25T08:51:51.246Z,88.59
2023-02-25T08:52:51.226Z,87.76
2023-02-25T08:53:51.223Z,88.28
2023-02-25T08:54:51.204Z,89.94
2023-02-25T08:55:51.213Z,87.86
2023-02-25T08:56:51.304Z,88.69
2023-02-25T08:57:51.194Z,88.31
2023-02-25T08:58:51.153Z,88.31
2023-02-25T08:59:51.165Z,88.52
2023-02-25T09:00:51.177Z,87.27
2023-02-25T09:01:51.143Z,86.86
2023-02-25T09:02:51.137Z,87.52
2023-02-25T09:03:51.173Z,88.04
2023-02-25T09:04:51.149Z,89.18
2023-02-25T09:05:51.104Z,88.35
2023-02-25T09:06:51.091Z,90.12
2023-02-25T09:07:51.077Z,87.84
2023-02-25T09:08:51.065Z,89.29
2023-02-25T09:09:51.436Z,90.85
2023-02-25T09:10:51.335Z,89.39
2023-02-25T09:11:51.062Z,90.33
2023-02-25T09:12:51.027Z,89.08
2023-02-25T09:13:51.018Z,89.08
2023-02-25T09:14:51.012Z,89.50
2023-02-25T09:15:51.007Z,89.50
2023-02-25T09:16:51.193Z,89.92
2023-02-25T09:17:50.985Z,89.60
2023-02-25T09:18:50.970Z,91.12
2023-02-25T09:19:51.273Z,90.39
2023-02-25T09:20:50.935Z,91.33
2023-02-25T09:21:50.944Z,91.02
2023-02-25T09:22:50.920Z,89.98
2023-02-25T09:23:50.916Z,91.02
2023-02-25T09:24:50.927Z,91.33
2023-02-25T09:25:50.898Z,91.85
2023-02-25T09:26:50.878Z,91.33
2023-02-25T09:27:50.871Z,89.77
2023-02-25T09:28:50.853Z,90.60
2023-02-25T09:29:51.097Z,90.97
2023-02-25T09:30:50.871Z,91.60
2023-02-25T09:31:51.072Z,90.93
2023-02-25T09:32:51.136Z,90.93
2023-02-25T09:33:50.831Z,89.27
2023-02-25T09:34:51.126Z,88.02
2023-02-25T09:35:50.795Z,87.92
2023-02-25T09:36:50.805Z,89.34
2023-02-25T09:37:50.784Z,87.71
2023-02-25T09:38:50.812Z,88.54
2023-02-25T09:39:51.105Z,89.17
2023-02-25T09:40:50.741Z,87.61
2023-02-25T09:41:50.749Z,87.71
2023-02-25T09:42:50.729Z,89.03
2023-02-25T09:43:50.810Z,87.47
2023-02-25T09:44:50.721Z,86.54
2023-02-25T09:45:50.959Z,87.84
2023-02-25T09:46:50.684Z,88.05
2023-02-25T09:47:50.802Z,84.07
2023-02-25T09:48:50.654Z,84.17
2023-02-25T09:49:50.658Z,84.83
2023-02-25T09:50:50.639Z,83.90
2023-02-25T09:51:50.638Z,84.25
2023-02-25T09:52:50.620Z,85.91
2023-02-25T09:53:50.615Z,85.91
2023-02-25T09:54:50.943Z,84.77
2023-02-25T09:55:50.593Z,86.57
2023-02-25T09:56:50.578Z,85.53
2023-02-25T09:57:50.572Z,84.84
2023-02-25T09:58:50.562Z,88.28
2023-02-25T09:59:50.954Z,87.96
2023-02-25T10:00:50.545Z,86.19
2023-02-25T10:01:50.537Z,86.41
2023-02-25T10:02:50.647Z,86.65
2023-02-25T10:03:50.523Z,85.41
2023-02-25T10:04:51.185Z,88.10
2023-02-25T10:05:50.497Z,86.76
2023-02-25T10:06:50.483Z,85.44
2023-02-25T10:07:50.474Z,85.65
2023-02-25T10:08:50.462Z,87.42
2023-02-25T10:09:50.480Z,87.11
2023-02-25T10:10:50.449Z,87.32
2023-02-25T10:11:50.445Z,87.79
2023-02-25T10:12:50.432Z,88.62
2023-02-25T10:13:50.420Z,86.34
2023-02-25T10:14:50.760Z,86.93
2023-02-25T10:15:52.826Z,86.61
2023-02-25T10:16:50.392Z,85.16
2023-02-25T10:17:50.380Z,85.68
2023-02-25T10:18:50.374Z,84.39
2023-02-25T10:19:50.739Z,84.39
2023-02-25T10:20:50.340Z,84.08
2023-02-25T10:21:50.343Z,81.70
2023-02-25T10:22:50.337Z,83.42
2023-02-25T10:23:50.313Z,82.70
2023-02-25T10:24:50.577Z,80.10
2023-02-25T10:25:50.293Z,78.37
2023-02-25T10:26:50.283Z,80.24
2023-02-25T10:27:50.290Z,79.10
2023-02-25T10:28:50.259Z,79.83
2023-02-25T10:29:50.456Z,80.59
2023-02-25T10:30:50.426Z,81.63
2023-02-25T10:31:50.449Z,79.76
2023-02-25T10:32:50.334Z,79.76
2023-02-25T10:33:50.236Z,81.32
2023-02-25T10:34:50.227Z,80.90
2023-02-25T10:35:50.199Z,79.76
2023-02-25T10:36:50.176Z,78.61
2023-02-25T10:37:50.172Z,79.86
2023-02-25T10:38:50.159Z,78.51
2023-02-25T10:39:50.150Z,78.65
2023-02-25T10:40:50.300Z,79.76
2023-02-25T10:41:50.158Z,78.23
2023-02-25T10:42:50.117Z,77.82
2023-02-25T10:43:50.115Z,78.03
2023-02-25T10:44:50.093Z,77.61
2023-02-25T10:45:50.114Z,78.75
2023-02-25T10:46:50.075Z,77.20
2023-02-25T10:47:50.082Z,77.30
2023-02-25T10:48:50.054Z,78.06
2023-02-25T10:49:50.055Z,80.35
2023-02-25T10:50:50.039Z,81.49
2023-02-25T10:51:50.028Z,83.09
2023-02-25T10:52:50.013Z,84.96
2023-02-25T10:53:50.006Z,88.02
2023-02-25T10:54:50.006Z,90.04
2023-02-25T10:55:49.992Z,91.33
2023-02-25T10:56:49.984Z,92.68
2023-02-25T10:57:49.963Z,93.04
2023-02-25T10:58:49.954Z,94.08
2023-02-25T10:59:49.950Z,94.18
2023-02-25T11:00:49.953Z,93.62
2023-02-25T11:01:49.970Z,93.10
2023-02-25T11:02:49.961Z,92.99
2023-02-25T11:03:49.911Z,93.62
2023-02-25T11:04:49.922Z,93.68
2023-02-25T11:05:49.893Z,90.97
2023-02-25T11:06:49.881Z,91.08
2023-02-25T11:07:49.875Z,90.45
2023-02-25T11:08:49.860Z,92.29
2023-02-25T11:09:49.860Z,92.08
2023-02-25T11:10:49.845Z,90.41
2023-02-25T11:11:49.828Z,87.77
2023-02-25T11:12:49.844Z,88.92
2023-02-25T11:13:49.810Z,87.63
2023-02-25T11:14:49.800Z,87.21
2023-02-25T11:15:49.864Z,85.61
2023-02-25T11:16:49.785Z,84.89
2023-02-25T11:17:49.777Z,83.84
2023-02-25T11:18:49.765Z,84.33
2023-02-25T11:19:49.759Z,83.77
2023-02-25T11:20:49.742Z,83.67
2023-02-25T11:21:49.743Z,83.04
2023-02-25T11:22:49.721Z,84.08
2023-02-25T11:23:49.713Z,82.84
2023-02-25T11:24:49.691Z,82.32
2023-02-25T11:25:49.698Z,83.60
2023-02-25T11:26:49.675Z,83.43
2023-02-25T11:27:49.664Z,80.98
2023-02-25T11:28:49.662Z,79.87
2023-02-25T11:29:49.652Z,80.22
2023-02-25T11:30:50.022Z,79.52
2023-02-25T11:31:49.803Z,82.86
2023-02-25T11:32:49.725Z,83.69
2023-02-25T11:33:49.647Z,84.27
2023-02-25T11:34:49.601Z,86.04
2023-02-25T11:35:49.597Z,83.82
2023-02-25T11:36:51.222Z,82.32
2023-02-25T11:37:49.589Z,81.39
2023-02-25T11:38:49.557Z,81.74
2023-02-25T11:39:49.562Z,81.60
2023-02-25T11:40:49.863Z,81.56
2023-02-25T11:41:49.568Z,83.64
2023-02-25T11:42:49.523Z,80.11
2023-02-25T11:43:49.506Z,81.52
2023-02-25T11:44:49.497Z,78.61
2023-02-25T11:45:49.510Z,79.86
2023-02-25T11:46:49.530Z,79.27
2023-02-25T11:47:49.474Z,81.56
2023-02-25T11:48:49.451Z,83.50
2023-02-25T11:49:49.446Z,83.70
2023-02-25T11:50:49.453Z,78.51
2023-02-25T11:51:49.432Z,77.58
2023-02-25T11:52:49.414Z,74.77
2023-02-25T11:53:49.432Z,73.25
2023-02-25T11:54:49.386Z,76.33
2023-02-25T11:55:49.688Z,75.19
2023-02-25T11:56:49.368Z,75.60
2023-02-25T11:57:49.360Z,73.94
2023-02-25T11:58:49.343Z,74.60
2023-02-25T11:59:49.345Z,75.64
2023-02-25T12:00:49.627Z,75.54
2023-02-25T12:01:49.315Z,76.33
2023-02-25T12:02:49.371Z,76.02
2023-02-25T12:03:49.296Z,76.12
2023-02-25T12:04:49.289Z,76.64
2023-02-25T12:05:49.582Z,75.88
2023-02-25T12:06:49.265Z,75.36
2023-02-25T12:08:05.089Z,76.68
2023-02-25T12:08:49.335Z,74.71
2023-02-25T12:09:49.229Z,74.15
2023-02-25T12:10:49.666Z,74.88
2023-02-25T12:11:49.211Z,75.67
2023-02-25T12:12:49.226Z,72.56
2023-02-25T12:13:49.194Z,71.22
2023-02-25T12:14:49.187Z,70.00
2023-02-25T12:15:49.233Z,67.82
2023-02-25T12:16:49.192Z,68.69
2023-02-25T12:17:49.159Z,70.45
2023-02-25T12:18:49.146Z,70.76
2023-02-25T12:19:49.144Z,68.82
2023-02-25T12:20:49.149Z,68.41
2023-02-25T12:21:49.150Z,70.69
2023-02-25T12:22:49.112Z,67.71
2023-02-25T12:23:49.099Z,69.06
2023-02-25T12:24:49.095Z,70.20
2023-02-25T12:25:49.450Z,68.96
2023-02-25T12:26:49.078Z,68.68
2023-02-25T12:27:49.104Z,70.34
2023-02-25T12:28:49.878Z,69.30
2023-02-25T12:29:49.030Z,69.30
2023-02-25T12:30:49.463Z,68.33
2023-02-25T12:31:49.085Z,68.62
2023-02-25T12:32:49.024Z,69.13
2023-02-25T12:33:48.990Z,69.65
2023-02-25T12:34:48.997Z,70.48
2023-02-25T12:35:48.982Z,68.10
2023-02-25T12:36:48.964Z,67.68
2023-02-25T12:37:48.953Z,67.99
2023-02-25T12:38:48.950Z,68.33
2023-02-25T12:39:48.953Z,67.82
2023-02-25T12:40:49.501Z,68.88
2023-02-25T12:41:48.935Z,70.23
2023-02-25T12:42:48.903Z,70.44
2023-02-25T12:43:48.892Z,70.03
2023-02-25T12:44:48.900Z,70.44
2023-02-25T12:45:48.944Z,69.09
2023-02-25T12:46:48.862Z,69.92
2023-02-25T12:47:48.850Z,70.23
2023-02-25T12:48:48.845Z,71.28
2023-02-25T12:49:48.831Z,69.02
2023-02-25T12:50:49.110Z,71.10
2023-02-25T12:51:48.808Z,71.72
2023-02-25T12:52:48.811Z,70.37